Impacts TAF Board INFO
FOR SITUATIONAL AWARENESS. NOT TO BE USED FOR FLIGHT PLANNING PURPOSES.
IDs:

KATL - Atlanta/Hartsfield-J, GA, US

Issued at 1938 UTC 22 Apr 2018
Updated at 2015 UTC 22 Apr 2018
Potential Impact None Slight Moderate High
Time<<23/21Z 23/22Z 23/23Z 24/00Z 24/01Z 24/02Z 24/03Z 24/04Z 24/05Z 24/06Z 24/07Z 24/08Z 24/09Z
Type PRVL
  [PRB30]  
PRVL PRVL
VIS >6
  [5]  
>6 >6
CIG 25
  [15]  
25 25
Cover OVC
  [OVC]  
OVC OVC
FltCat MVFR
  [MVFR]  
MVFR MVFR
WX --
  [TSRA]  
-- --
WDir 150
[150]
150 150
WSpd 8
  [8]  
8 8
WGst --
  [--]  
-- --

Raw TAF
KATL 221938Z 2220/2324 11012G22KT 6SM SHRA BKN008
  FM230000 10015G30KT 3SM +SHRA OVC010
  FM230300 10020G32KT 4SM +SHRA OVC008
  FM231100 10010G18KT 6SM SHRA OVC008
  FM231400 10008KT 6SM SHRA OVC007
  FM231600 11007KT P6SM SHRA OVC015
  FM231800 15008KT P6SM OVC025
  PROB30 2318/2322 5SM TSRA OVC015CB


METAR Board
Radar Display
Forecast Discussion

FOR SITUATIONAL AWARENESS. NOT TO BE USED FOR FLIGHT PLANNING PURPOSES.